Lineboro, Maryland
Current Conditions -  °F | °C
As of 12:25 AM on Monday 20 Oct 2014 (Local Time) from KDMW Reporting Station
Clear Clear  
Wind Chill: 45°   Ceiling: Unl
Heat Index: 45°   Visibility: 10mi
Dew Point: 36°   Wind: 0mph
Humidity: 71%   Direction: NA
Pressure: 30.1"   Gusts: NA
Location:  39.72°N, 76.84°W
Report Text: KDMW 200425Z AUTO 00000KT 10SM CLR 07/02 A3010 RMK AO2
Loading
Personal Weather Stations






























Interactive Weather Map New forecast layout! Learn more

10-Day Weather Forecast

Advertisements
Track Severe Weather on mobile